This is the latest recevied weather packets stored in our database for station/object W0AKY-13. If no packets are shown the sender has not sent any weather packets the latest 10 day(s).
| Time | Temp. | Humidity | Pressure | Rain* | Wind** | Luminosity | Snow |
|---|---|---|---|---|---|---|---|
| 1777777236 | 12.78° C | 50% | 1016.6 hPa | 0 mm | - | 0 W/m² | - |
| 1777776933 | 12.22° C | 49% | 1016.7 hPa | 0 mm | - | 0 W/m² | - |
| 1777776631 | 12.22° C | 50% | 1016.7 hPa | 0 mm | - | 0 W/m² | - |
| 1777776326 | 12.22° C | 50% | 1016.6 hPa | 0 mm | - | 0 W/m² | - |
| 1777776024 | 12.22° C | 49% | 1016.7 hPa | 0 mm | - | 0 W/m² | - |
| 1777775721 | 11.67° C | 53% | 1016.9 hPa | 0 mm | - | 0 W/m² | - |
| 1777775418 | 11.67° C | 56% | 1016.9 hPa | 0 mm | - | 0 W/m² | - |
| 1777775114 | 11.67° C | 56% | 1017 hPa | 0 mm | - | 0 W/m² | - |
| 1777774809 | 11.67° C | 55% | 1017 hPa | 0 mm | - | 0 W/m² | - |
| 1777774506 | 12.22° C | 54% | 1017 hPa | 0 mm | - | 0 W/m² | - |
| 1777774203 | 12.22° C | 53% | 1017 hPa | 0 mm | - | 0 W/m² | - |
| 1777773900 | 12.78° C | 50% | 1016.9 hPa | 0 mm | - | 0 W/m² | - |
| 1777773596 | 12.78° C | 51% | 1016.8 hPa | 0 mm | - | 0 W/m² | - |
| 1777773294 | 13.33° C | 49% | 1017 hPa | 0 mm | - | 0 W/m² | - |
| 1777772990 | 13.33° C | 50% | 1017 hPa | 0 mm | - | 0 W/m² | - |
| 1777772687 | 13.89° C | 46% | 1017.1 hPa | 0 mm | - | 0 W/m² | - |
| 1777772385 | 14.44° C | 43% | 1017 hPa | 0 mm | - | 0 W/m² | - |
| 1777772082 | 14.44° C | 42% | 1016.9 hPa | 0 mm | - | 0 W/m² | - |
| 1777771779 | 15° C | 42% | 1017.2 hPa | 0 mm | - | 1 W/m² | - |
| 1777771477 | 15° C | 41% | 1016.9 hPa | 0 mm | - | 1 W/m² | - |
| 1777771172 | 15° C | 41% | 1017 hPa | 0 mm | - | 2 W/m² | - |
| 1777770870 | 15.56° C | 42% | 1017 hPa | 0 mm | - | 3 W/m² | - |
| 1777770567 | 15.56° C | 41% | 1017 hPa | 0 mm | - | 5 W/m² | - |
| 1777770263 | 16.11° C | 40% | 1016.9 hPa | 0 mm | - | 6 W/m² | - |
| 1777769961 | 16.67° C | 37% | 1016.9 hPa | 0 mm | - | 8 W/m² | - |
* Rain latest hour (hover to see other rain measurements)
** Current wind speed in m/s (hover to see current wind gust speed)